Gateway National Recreation, New Jersey
Current Conditions -  °F | °C
As of 2:55 AM on Saturday 01 Nov 2014 (Local Time) from KBLM Reporting Station
Overcast Overcast  
Wind Chill: 50°   Ceiling: 1500
Heat Index: 50°   Visibility: 10mi
Dew Point: 43°   Wind: 12mph
Humidity: 76%   Direction: 20°NNE
Pressure: 29.78"   Gusts: 24mph
Location:  40.4012°N, 73.9902°W
Report Text: KBLM 010655Z AUTO 02010G21KT 10SM OVC015 10/06 A2978 RMK AO1
Loading
Personal Weather Stations






























Interactive Weather Map
Tropical Storm Tracking
New forecast layout! Learn more

10-Day Weather Forecast

Advertisements
Track Severe Weather on mobile